sensor_id;sensor_type;location;lat;lon;timestamp;pressure;altitude;pressure_sealevel;temperature;humidity
64886;BME280;51514;52.206;5.114;2022-10-30T00:00:48;101681.13;;;15.87;81.31
64886;BME280;51514;52.206;5.114;2022-10-30T00:03:14;101684.34;;;15.83;81.40
64886;BME280;51514;52.206;5.114;2022-10-30T00:05:45;101685.03;;;15.77;81.61
64886;BME280;51514;52.206;5.114;2022-10-30T00:08:13;101681.97;;;15.72;82.05
64886;BME280;51514;52.206;5.114;2022-10-30T00:10:39;101690.66;;;15.67;82.49
64886;BME280;51514;52.206;5.114;2022-10-30T00:13:06;101688.44;;;15.62;82.62
64886;BME280;51514;52.206;5.114;2022-10-30T00:15:32;101689.28;;;15.63;82.99
64886;BME280;51514;52.206;5.114;2022-10-30T00:17:58;101687.59;;;15.62;83.22
64886;BME280;51514;52.206;5.114;2022-10-30T00:20:23;101681.81;;;15.65;83.38
64886;BME280;51514;52.206;5.114;2022-10-30T00:22:49;101680.13;;;15.64;83.02
64886;BME280;51514;52.206;5.114;2022-10-30T00:25:14;101681.81;;;15.65;82.97
64886;BME280;51514;52.206;5.114;2022-10-30T00:27:39;101677.94;;;15.67;83.03
64886;BME280;51514;52.206;5.114;2022-10-30T00:30:05;101679.59;;;15.68;83.41
64886;BME280;51514;52.206;5.114;2022-10-30T00:32:30;101684.00;;;15.69;83.02
64886;BME280;51514;52.206;5.114;2022-10-30T00:34:56;101687.41;;;15.72;83.16
64886;BME280;51514;52.206;5.114;2022-10-30T00:37:21;101672.13;;;15.70;82.77
64886;BME280;51514;52.206;5.114;2022-10-30T00:39:46;101675.53;;;15.64;82.94
64886;BME280;51514;52.206;5.114;2022-10-30T00:42:13;101672.47;;;15.59;83.49
64886;BME280;51514;52.206;5.114;2022-10-30T00:44:50;101682.69;;;15.57;83.56
64886;BME280;51514;52.206;5.114;2022-10-30T00:47:22;101678.94;;;15.58;83.44
64886;BME280;51514;52.206;5.114;2022-10-30T00:50:14;101678.94;;;15.58;83.27
64886;BME280;51514;52.206;5.114;2022-10-30T00:52:53;101682.50;;;15.59;83.20
64886;BME280;51514;52.206;5.114;2022-10-30T00:55:29;101684.38;;;15.58;83.13
64886;BME280;51514;52.206;5.114;2022-10-30T00:57:57;101683.34;;;15.59;83.48
64886;BME280;51514;52.206;5.114;2022-10-30T01:00:23;101688.13;;;15.57;83.30
64886;BME280;51514;52.206;5.114;2022-10-30T01:02:51;101691.66;;;15.58;83.42
64886;BME280;51514;52.206;5.114;2022-10-30T01:05:19;101695.44;;;15.57;83.79
64886;BME280;51514;52.206;5.114;2022-10-30T01:07:45;101698.81;;;15.59;83.72
64886;BME280;51514;52.206;5.114;2022-10-30T01:10:11;101695.91;;;15.60;83.55
64886;BME280;51514;52.206;5.114;2022-10-30T01:12:38;101698.63;;;15.60;83.64
64886;BME280;51514;52.206;5.114;2022-10-30T01:15:04;101698.63;;;15.60;83.53
64886;BME280;51514;52.206;5.114;2022-10-30T01:17:44;101694.06;;;15.61;83.21
64886;BME280;51514;52.206;5.114;2022-10-30T01:33:04;101693.50;;;15.49;82.89
64886;BME280;51514;52.206;5.114;2022-10-30T01:35:41;101696.59;;;15.46;83.15
64886;BME280;51514;52.206;5.114;2022-10-30T01:38:18;101706.94;;;15.43;83.19
64886;BME280;51514;52.206;5.114;2022-10-30T01:40:45;101718.81;;;15.42;83.53
64886;BME280;51514;52.206;5.114;2022-10-30T01:43:11;101719.00;;;15.40;83.38
64886;BME280;51514;52.206;5.114;2022-10-30T01:48:51;101708.28;;;15.39;83.58
64886;BME280;51514;52.206;5.114;2022-10-30T01:57:02;101709.81;;;15.33;83.70
64886;BME280;51514;52.206;5.114;2022-10-30T01:59:34;101708.97;;;15.32;83.61
64886;BME280;51514;52.206;5.114;2022-10-30T02:02:01;101712.53;;;15.33;83.61
64886;BME280;51514;52.206;5.114;2022-10-30T02:04:27;101712.72;;;15.31;83.74
64886;BME280;51514;52.206;5.114;2022-10-30T02:06:53;101706.41;;;15.31;83.79
64886;BME280;51514;52.206;5.114;2022-10-30T02:09:19;101716.44;;;15.30;84.09
64886;BME280;51514;52.206;5.114;2022-10-30T02:11:45;101704.72;;;15.30;83.97
64886;BME280;51514;52.206;5.114;2022-10-30T02:14:15;101713.19;;;15.27;84.10
64886;BME280;51514;52.206;5.114;2022-10-30T02:16:45;101709.63;;;15.26;83.97
64886;BME280;51514;52.206;5.114;2022-10-30T02:19:13;101708.28;;;15.22;83.71
64886;BME280;51514;52.206;5.114;2022-10-30T02:21:39;101715.59;;;15.22;83.74
64886;BME280;51514;52.206;5.114;2022-10-30T02:24:05;101718.31;;;15.22;83.97
64886;BME280;51514;52.206;5.114;2022-10-30T02:26:30;101711.50;;;15.18;83.89
64886;BME280;51514;52.206;5.114;2022-10-30T02:28:55;101712.50;;;15.17;83.66
64886;BME280;51514;52.206;5.114;2022-10-30T02:31:21;101710.66;;;15.17;83.94
64886;BME280;51514;52.206;5.114;2022-10-30T02:33:47;101720.81;;;15.15;83.96
64886;BME280;51514;52.206;5.114;2022-10-30T02:36:13;101722.69;;;15.15;83.46
64886;BME280;51514;52.206;5.114;2022-10-30T02:38:44;101724.75;;;15.13;83.65
64886;BME280;51514;52.206;5.114;2022-10-30T02:41:10;101730.50;;;15.10;83.93
64886;BME280;51514;52.206;5.114;2022-10-30T02:43:36;101731.53;;;15.09;84.16
64886;BME280;51514;52.206;5.114;2022-10-30T02:46:01;101733.38;;;15.08;83.75
64886;BME280;51514;52.206;5.114;2022-10-30T02:48:29;101730.84;;;15.07;83.82
64886;BME280;51514;52.206;5.114;2022-10-30T02:50:58;101729.13;;;15.06;83.74
64886;BME280;51514;52.206;5.114;2022-10-30T02:53:24;101722.00;;;15.05;83.65
64886;BME280;51514;52.206;5.114;2022-10-30T02:55:49;101726.41;;;15.06;83.77
64886;BME280;51514;52.206;5.114;2022-10-30T02:58:14;101731.00;;;15.05;83.88
64886;BME280;51514;52.206;5.114;2022-10-30T03:00:40;101728.28;;;15.05;84.17
64886;BME280;51514;52.206;5.114;2022-10-30T03:03:05;101729.13;;;15.06;84.42
64886;BME280;51514;52.206;5.114;2022-10-30T03:05:30;101722.00;;;15.05;84.43
64886;BME280;51514;52.206;5.114;2022-10-30T03:07:55;101719.97;;;15.07;84.48
64886;BME280;51514;52.206;5.114;2022-10-30T03:10:21;101723.53;;;15.07;84.51
64886;BME280;51514;52.206;5.114;2022-10-30T03:12:47;101731.69;;;15.07;84.32
64886;BME280;51514;52.206;5.114;2022-10-30T03:15:12;101732.53;;;15.08;84.22
64886;BME280;51514;52.206;5.114;2022-10-30T03:17:37;101737.28;;;15.06;84.12
64886;BME280;51514;52.206;5.114;2022-10-30T03:20:03;101735.56;;;15.05;84.34
64886;BME280;51514;52.206;5.114;2022-10-30T03:22:30;101728.28;;;15.05;84.14
64886;BME280;51514;52.206;5.114;2022-10-30T03:24:55;101729.13;;;15.06;84.19
64886;BME280;51514;52.206;5.114;2022-10-30T03:27:21;101731.16;;;15.04;84.19
64886;BME280;51514;52.206;5.114;2022-10-30T03:29:46;101723.00;;;15.04;84.15
64886;BME280;51514;52.206;5.114;2022-10-30T03:32:11;101730.13;;;15.05;83.99
64886;BME280;51514;52.206;5.114;2022-10-30T03:34:37;101724.06;;;15.03;83.91
64886;BME280;51514;52.206;5.114;2022-10-30T03:37:03;101732.19;;;15.03;83.83
64886;BME280;51514;52.206;5.114;2022-10-30T03:39:29;101726.94;;;15.01;83.61
64886;BME280;51514;52.206;5.114;2022-10-30T03:41:54;101731.50;;;15.01;83.54
64886;BME280;51514;52.206;5.114;2022-10-30T03:44:22;101722.50;;;15.00;83.59
64886;BME280;51514;52.206;5.114;2022-10-30T03:46:47;101710.09;;;14.97;83.42
64886;BME280;51514;52.206;5.114;2022-10-30T03:49:13;101721.28;;;14.94;83.42
64886;BME280;51514;52.206;5.114;2022-10-30T03:51:38;101718.41;;;14.88;82.80
64886;BME280;51514;52.206;5.114;2022-10-30T03:54:03;101722.97;;;14.79;82.74
64886;BME280;51514;52.206;5.114;2022-10-30T03:56:29;101714.44;;;14.74;82.80
64886;BME280;51514;52.206;5.114;2022-10-30T03:58:54;101717.84;;;14.68;83.14
64886;BME280;51514;52.206;5.114;2022-10-30T04:01:19;101717.31;;;14.65;83.49
64886;BME280;51514;52.206;5.114;2022-10-30T04:03:45;101718.47;;;14.62;83.87
64886;BME280;51514;52.206;5.114;2022-10-30T04:06:10;101716.09;;;14.59;84.14
64886;BME280;51514;52.206;5.114;2022-10-30T04:08:36;101728.81;;;14.58;84.41
64886;BME280;51514;52.206;5.114;2022-10-30T04:11:01;101722.38;;;14.59;84.53
64886;BME280;51514;52.206;5.114;2022-10-30T04:13:26;101723.25;;;14.60;84.86
64886;BME280;51514;52.206;5.114;2022-10-30T04:15:52;101724.25;;;14.59;84.88
64886;BME280;51514;52.206;5.114;2022-10-30T04:18:17;101718.81;;;14.59;84.95
64886;BME280;51514;52.206;5.114;2022-10-30T04:20:44;101722.53;;;14.58;85.21
64886;BME280;51514;52.206;5.114;2022-10-30T04:23:13;101713.88;;;14.54;85.45
64886;BME280;51514;52.206;5.114;2022-10-30T04:25:39;101710.47;;;14.52;85.84
64886;BME280;51514;52.206;5.114;2022-10-30T04:28:04;101701.63;;;14.50;85.31
64886;BME280;51514;52.206;5.114;2022-10-30T04:30:30;101720.81;;;14.49;85.04
64886;BME280;51514;52.206;5.114;2022-10-30T04:33:00;101731.13;;;14.45;85.46
64886;BME280;51514;52.206;5.114;2022-10-30T04:35:28;101731.13;;;14.45;85.60
64886;BME280;51514;52.206;5.114;2022-10-30T04:37:58;101737.41;;;14.46;86.06
64886;BME280;51514;52.206;5.114;2022-10-30T04:40:26;101732.69;;;14.48;86.04
64886;BME280;51514;52.206;5.114;2022-10-30T04:42:52;101728.25;;;14.47;85.29
64886;BME280;51514;52.206;5.114;2022-10-30T04:45:17;101738.09;;;14.48;85.14
64886;BME280;51514;52.206;5.114;2022-10-30T04:47:43;101733.69;;;14.47;85.31
64886;BME280;51514;52.206;5.114;2022-10-30T04:50:09;101730.97;;;14.47;85.26
64886;BME280;51514;52.206;5.114;2022-10-30T04:52:35;101735.72;;;14.45;85.23
64886;BME280;51514;52.206;5.114;2022-10-30T04:55:01;101736.72;;;14.44;85.01
64886;BME280;51514;52.206;5.114;2022-10-30T04:57:26;101721.75;;;14.40;85.12
64886;BME280;51514;52.206;5.114;2022-10-30T04:59:51;101734.47;;;14.39;84.88
64886;BME280;51514;52.206;5.114;2022-10-30T05:02:17;101729.53;;;14.35;84.80
64886;BME280;51514;52.206;5.114;2022-10-30T05:04:45;101739.69;;;14.33;84.88
64886;BME280;51514;52.206;5.114;2022-10-30T05:07:11;101740.16;;;14.28;85.12
64886;BME280;51514;52.206;5.114;2022-10-30T05:09:37;101734.53;;;14.21;85.68
64886;BME280;51514;52.206;5.114;2022-10-30T05:12:03;101733.13;;;14.17;85.72
64886;BME280;51514;52.206;5.114;2022-10-30T05:14:29;101732.63;;;14.14;85.25
64886;BME280;51514;52.206;5.114;2022-10-30T05:16:55;101730.06;;;14.12;85.40
64886;BME280;51514;52.206;5.114;2022-10-30T05:19:24;101720.38;;;14.10;84.94
64886;BME280;51514;52.206;5.114;2022-10-30T05:21:50;101716.81;;;14.09;85.08
64886;BME280;51514;52.206;5.114;2022-10-30T05:24:15;101711.91;;;14.05;85.04
64886;BME280;51514;52.206;5.114;2022-10-30T05:26:41;101706.78;;;14.02;85.47
64886;BME280;51514;52.206;5.114;2022-10-30T05:29:06;101706.63;;;14.03;85.91
64886;BME280;51514;52.206;5.114;2022-10-30T05:31:32;101703.06;;;14.03;86.55
64886;BME280;51514;52.206;5.114;2022-10-30T05:33:57;101690.19;;;14.05;86.26
64886;BME280;51514;52.206;5.114;2022-10-30T05:36:22;101695.09;;;14.01;86.93
64886;BME280;51514;52.206;5.114;2022-10-30T05:38:47;101687.09;;;14.00;87.23
64886;BME280;51514;52.206;5.114;2022-10-30T05:41:13;101695.75;;;13.95;87.21
64886;BME280;51514;52.206;5.114;2022-10-30T05:43:38;101711.31;;;13.93;87.51
64886;BME280;51514;52.206;5.114;2022-10-30T05:46:03;101714.34;;;13.90;87.80
64886;BME280;51514;52.206;5.114;2022-10-30T05:48:29;101718.22;;;13.87;88.29
64886;BME280;51514;52.206;5.114;2022-10-30T05:50:55;101724.63;;;13.86;87.79
64886;BME280;51514;52.206;5.114;2022-10-30T05:53:23;101718.22;;;13.87;87.84
64886;BME280;51514;52.206;5.114;2022-10-30T05:55:49;101717.34;;;13.87;88.01
64886;BME280;51514;52.206;5.114;2022-10-30T05:58:15;101721.78;;;13.88;88.14
64886;BME280;51514;52.206;5.114;2022-10-30T06:00:40;101722.94;;;13.85;87.79
64886;BME280;51514;52.206;5.114;2022-10-30T06:03:09;101716.66;;;13.85;87.79
64886;BME280;51514;52.206;5.114;2022-10-30T06:05:36;101722.06;;;13.85;87.36
64886;BME280;51514;52.206;5.114;2022-10-30T06:08:03;101731.06;;;13.85;87.09
64886;BME280;51514;52.206;5.114;2022-10-30T06:10:29;101728.16;;;13.79;86.90
64886;BME280;51514;52.206;5.114;2022-10-30T06:12:56;101726.09;;;13.73;87.01
64886;BME280;51514;52.206;5.114;2022-10-30T06:15:22;101725.38;;;13.71;86.83
64886;BME280;51514;52.206;5.114;2022-10-30T06:17:48;101728.09;;;13.71;86.76
64886;BME280;51514;52.206;5.114;2022-10-30T06:20:14;101721.81;;;13.70;86.32
64886;BME280;51514;52.206;5.114;2022-10-30T06:22:40;101731.66;;;13.71;86.23
64886;BME280;51514;52.206;5.114;2022-10-30T06:25:06;101736.22;;;13.71;86.10
64886;BME280;51514;52.206;5.114;2022-10-30T06:27:34;101741.66;;;13.71;86.15
64886;BME280;51514;52.206;5.114;2022-10-30T06:29:59;101747.06;;;13.71;86.21
64886;BME280;51514;52.206;5.114;2022-10-30T06:32:25;101746.06;;;13.72;86.35
64886;BME280;51514;52.206;5.114;2022-10-30T06:34:50;101747.06;;;13.71;86.45
64886;BME280;51514;52.206;5.114;2022-10-30T06:37:16;101745.06;;;13.73;86.76
64886;BME280;51514;52.206;5.114;2022-10-30T06:39:41;101749.28;;;13.75;86.34
64886;BME280;51514;52.206;5.114;2022-10-30T06:42:09;101762.47;;;13.70;86.36
64886;BME280;51514;52.206;5.114;2022-10-30T06:44:34;101748.69;;;13.64;86.62
64886;BME280;51514;52.206;5.114;2022-10-30T06:47:00;101751.72;;;13.61;86.96
64886;BME280;51514;52.206;5.114;2022-10-30T06:49:25;101752.25;;;13.64;87.13
64886;BME280;51514;52.206;5.114;2022-10-30T06:51:50;101757.50;;;13.66;87.00
64886;BME280;51514;52.206;5.114;2022-10-30T06:54:16;101742.81;;;13.68;86.54
64886;BME280;51514;52.206;5.114;2022-10-30T06:56:41;101738.22;;;13.69;86.37
64886;BME280;51514;52.206;5.114;2022-10-30T06:59:07;101741.50;;;13.72;86.45
64886;BME280;51514;52.206;5.114;2022-10-30T07:01:33;101751.34;;;13.73;86.56
64886;BME280;51514;52.206;5.114;2022-10-30T07:03:58;101746.56;;;13.75;86.58
64886;BME280;51514;52.206;5.114;2022-10-30T07:06:24;101751.16;;;13.75;86.81
64886;BME280;51514;52.206;5.114;2022-10-30T07:08:49;101756.56;;;13.75;86.77
64886;BME280;51514;52.206;5.114;2022-10-30T07:11:14;101758.81;;;13.79;86.94
64886;BME280;51514;52.206;5.114;2022-10-30T07:13:40;101759.81;;;13.78;87.26
64886;BME280;51514;52.206;5.114;2022-10-30T07:16:05;101763.22;;;13.80;87.47
64886;BME280;51514;52.206;5.114;2022-10-30T07:18:30;101757.66;;;13.82;87.43
64886;BME280;51514;52.206;5.114;2022-10-30T07:20:56;101752.59;;;13.87;87.53
64886;BME280;51514;52.206;5.114;2022-10-30T07:23:21;101743.16;;;13.91;87.53
64886;BME280;51514;52.206;5.114;2022-10-30T07:25:47;101746.22;;;13.96;87.80
64886;BME280;51514;52.206;5.114;2022-10-30T07:28:12;101751.03;;;14.02;87.81
64886;BME280;51514;52.206;5.114;2022-10-30T07:30:37;101753.09;;;14.08;87.80
64886;BME280;51514;52.206;5.114;2022-10-30T07:33:05;101739.91;;;14.13;88.06
64886;BME280;51514;52.206;5.114;2022-10-30T07:35:32;101735.38;;;14.22;88.47
64886;BME280;51514;52.206;5.114;2022-10-30T07:38:06;101731.00;;;14.29;88.89
64886;BME280;51514;52.206;5.114;2022-10-30T07:40:32;101737.34;;;14.38;88.87
64886;BME280;51514;52.206;5.114;2022-10-30T07:42:59;101739.44;;;14.44;89.35
64886;BME280;51514;52.206;5.114;2022-10-30T07:45:26;101738.78;;;14.50;89.59
64886;BME280;51514;52.206;5.114;2022-10-30T07:47:51;101738.13;;;14.56;89.91
64886;BME280;51514;52.206;5.114;2022-10-30T07:50:17;101744.59;;;14.63;90.42
64886;BME280;51514;52.206;5.114;2022-10-30T07:52:42;101735.81;;;14.69;90.43
64886;BME280;51514;52.206;5.114;2022-10-30T07:55:08;101740.06;;;14.72;90.48
64886;BME280;51514;52.206;5.114;2022-10-30T07:57:35;101727.00;;;14.75;90.86
64886;BME280;51514;52.206;5.114;2022-10-30T08:00:05;101733.66;;;14.81;91.27
64886;BME280;51514;52.206;5.114;2022-10-30T08:02:31;101737.41;;;14.88;91.67
64886;BME280;51514;52.206;5.114;2022-10-30T08:04:56;101739.66;;;14.92;91.05
64886;BME280;51514;52.206;5.114;2022-10-30T08:07:22;101735.88;;;14.93;90.75
64886;BME280;51514;52.206;5.114;2022-10-30T08:09:47;101738.28;;;14.96;90.59
64886;BME280;51514;52.206;5.114;2022-10-30T08:12:13;101742.00;;;15.04;90.54
64886;BME280;51514;52.206;5.114;2022-10-30T08:14:39;101727.09;;;15.08;90.27
64886;BME280;51514;52.206;5.114;2022-10-30T08:17:04;101730.84;;;15.15;90.57
64886;BME280;51514;52.206;5.114;2022-10-30T08:19:31;101738.34;;;15.21;90.28
64886;BME280;51514;52.206;5.114;2022-10-30T08:21:57;101745.81;;;15.27;90.62
64886;BME280;51514;52.206;5.114;2022-10-30T08:24:22;101743.28;;;15.33;90.34
64886;BME280;51514;52.206;5.114;2022-10-30T08:26:50;101747.19;;;15.39;90.82
64886;BME280;51514;52.206;5.114;2022-10-30T08:29:16;101739.88;;;15.48;90.86
64886;BME280;51514;52.206;5.114;2022-10-30T08:31:41;101747.25;;;15.55;90.41
64886;BME280;51514;52.206;5.114;2022-10-30T08:34:07;101743.50;;;15.56;90.43
64886;BME280;51514;52.206;5.114;2022-10-30T08:36:33;101746.88;;;15.58;90.19
64886;BME280;51514;52.206;5.114;2022-10-30T08:38:58;101748.09;;;15.64;90.42
64886;BME280;51514;52.206;5.114;2022-10-30T08:41:24;101745.53;;;15.70;90.28
64886;BME280;51514;52.206;5.114;2022-10-30T08:43:49;101741.97;;;15.78;90.12
64886;BME280;51514;52.206;5.114;2022-10-30T08:46:14;101748.09;;;15.88;90.42
64886;BME280;51514;52.206;5.114;2022-10-30T08:48:40;101751.66;;;15.97;90.33
64886;BME280;51514;52.206;5.114;2022-10-30T08:51:05;101739.72;;;16.06;90.23
64886;BME280;51514;52.206;5.114;2022-10-30T08:53:31;101745.16;;;16.14;89.96
64886;BME280;51514;52.206;5.114;2022-10-30T08:55:56;101750.59;;;16.22;89.84
64886;BME280;51514;52.206;5.114;2022-10-30T08:58:22;101747.84;;;16.30;89.90
64886;BME280;51514;52.206;5.114;2022-10-30T09:00:49;101749.84;;;16.36;89.63
64886;BME280;51514;52.206;5.114;2022-10-30T09:03:14;101732.84;;;16.42;89.43
64886;BME280;51514;52.206;5.114;2022-10-30T09:05:40;101724.81;;;16.49;89.15
64886;BME280;51514;52.206;5.114;2022-10-30T09:08:05;101725.44;;;16.59;89.20
64886;BME280;51514;52.206;5.114;2022-10-30T09:10:30;101728.00;;;16.69;88.95
64886;BME280;51514;52.206;5.114;2022-10-30T09:12:59;101725.91;;;16.79;89.19
64886;BME280;51514;52.206;5.114;2022-10-30T09:15:26;101731.13;;;16.89;89.50
64886;BME280;51514;52.206;5.114;2022-10-30T09:18:00;101732.13;;;16.96;88.80
64886;BME280;51514;52.206;5.114;2022-10-30T09:20:27;101741.09;;;17.04;89.14
64886;BME280;51514;52.206;5.114;2022-10-30T09:22:53;101745.81;;;17.10;88.74
64886;BME280;51514;52.206;5.114;2022-10-30T09:25:18;101739.66;;;17.17;88.62
64886;BME280;51514;52.206;5.114;2022-10-30T09:27:43;101749.81;;;17.23;88.18
64886;BME280;51514;52.206;5.114;2022-10-30T09:30:09;101743.84;;;17.27;87.67
64886;BME280;51514;52.206;5.114;2022-10-30T09:32:35;101753.00;;;17.34;88.03
64886;BME280;51514;52.206;5.114;2022-10-30T09:35:01;101750.69;;;17.46;88.34
64886;BME280;51514;52.206;5.114;2022-10-30T09:37:26;101758.63;;;17.56;87.71
64886;BME280;51514;52.206;5.114;2022-10-30T09:39:52;101762.00;;;17.66;87.44
64886;BME280;51514;52.206;5.114;2022-10-30T09:45:10;101758.88;;;17.92;86.49
64886;BME280;51514;52.206;5.114;2022-10-30T09:58:39;101753.66;;;18.19;81.95
64886;BME280;51514;52.206;5.114;2022-10-30T10:01:16;101752.91;;;18.26;82.54
64886;BME280;51514;52.206;5.114;2022-10-30T10:04:05;101744.44;;;18.35;83.20
64886;BME280;51514;52.206;5.114;2022-10-30T10:06:43;101748.78;;;18.44;83.15
64886;BME280;51514;52.206;5.114;2022-10-30T10:09:24;101755.16;;;18.51;82.91
64886;BME280;51514;52.206;5.114;2022-10-30T10:11:54;101745.88;;;18.60;82.26
64886;BME280;51514;52.206;5.114;2022-10-30T10:14:27;101749.38;;;18.69;81.64
64886;BME280;51514;52.206;5.114;2022-10-30T10:16:55;101747.00;;;18.81;81.88
64886;BME280;51514;52.206;5.114;2022-10-30T10:19:54;101748.59;;;18.90;80.89
64886;BME280;51514;52.206;5.114;2022-10-30T10:25:02;101744.56;;;19.07;79.31
64886;BME280;51514;52.206;5.114;2022-10-30T10:27:48;101745.25;;;19.09;79.07
64886;BME280;51514;52.206;5.114;2022-10-30T10:30:22;101750.59;;;19.17;79.41
64886;BME280;51514;52.206;5.114;2022-10-30T10:35:46;101743.84;;;19.35;78.48
64886;BME280;51514;52.206;5.114;2022-10-30T10:43:37;101742.56;;;19.52;77.14
64886;BME280;51514;52.206;5.114;2022-10-30T10:51:30;101747.25;;;19.79;77.01
64886;BME280;51514;52.206;5.114;2022-10-30T10:53:59;101749.84;;;19.87;76.71
64886;BME280;51514;52.206;5.114;2022-10-30T10:56:31;101741.03;;;19.92;76.19
64886;BME280;51514;52.206;5.114;2022-10-30T10:59:15;101737.91;;;19.95;74.93
64886;BME280;51514;52.206;5.114;2022-10-30T11:01:47;101737.31;;;19.99;76.53
64886;BME280;51514;52.206;5.114;2022-10-30T11:04:23;101736.50;;;20.05;75.95
64886;BME280;51514;52.206;5.114;2022-10-30T11:06:53;101739.09;;;20.14;76.68
64886;BME280;51514;52.206;5.114;2022-10-30T11:09:22;101728.84;;;20.22;76.08
64886;BME280;51514;52.206;5.114;2022-10-30T11:11:52;101721.69;;;20.28;75.57
64886;BME280;51514;52.206;5.114;2022-10-30T11:14:23;101724.69;;;20.33;75.29
64886;BME280;51514;52.206;5.114;2022-10-30T11:17:04;101703.25;;;20.36;74.03
64886;BME280;51514;52.206;5.114;2022-10-30T11:19:35;101707.66;;;20.37;74.28
64886;BME280;51514;52.206;5.114;2022-10-30T11:22:00;101702.66;;;20.41;74.42
64886;BME280;51514;52.206;5.114;2022-10-30T11:24:32;101700.31;;;20.45;74.31
64886;BME280;51514;52.206;5.114;2022-10-30T11:27:15;101706.25;;;20.48;74.52
64886;BME280;51514;52.206;5.114;2022-10-30T11:29:52;101699.13;;;20.54;73.80
64886;BME280;51514;52.206;5.114;2022-10-30T11:32:20;101702.91;;;20.53;73.86
64886;BME280;51514;52.206;5.114;2022-10-30T11:35:02;101700.19;;;20.59;73.50
64886;BME280;51514;52.206;5.114;2022-10-30T11:37:32;101691.56;;;20.62;73.40
64886;BME280;51514;52.206;5.114;2022-10-30T11:40:22;101701.06;;;20.66;72.56
64886;BME280;51514;52.206;5.114;2022-10-30T11:43:09;101693.09;;;20.71;71.99
64886;BME280;51514;52.206;5.114;2022-10-30T11:45:40;101689.50;;;20.77;73.29
64886;BME280;51514;52.206;5.114;2022-10-30T11:48:20;101690.59;;;20.83;73.04
64886;BME280;51514;52.206;5.114;2022-10-30T11:50:48;101684.91;;;20.85;72.90
64886;BME280;51514;52.206;5.114;2022-10-30T11:53:26;101688.91;;;20.82;72.38
64886;BME280;51514;52.206;5.114;2022-10-30T11:55:56;101690.59;;;20.76;71.80
64886;BME280;51514;52.206;5.114;2022-10-30T12:00:58;101681.25;;;20.64;70.65
64886;BME280;51514;52.206;5.114;2022-10-30T12:03:42;101684.00;;;20.64;72.00
64886;BME280;51514;52.206;5.114;2022-10-30T12:06:20;101688.22;;;20.67;72.42
64886;BME280;51514;52.206;5.114;2022-10-30T12:09:09;101673.66;;;20.66;72.17
64886;BME280;51514;52.206;5.114;2022-10-30T12:11:36;101682.31;;;20.70;72.30
64886;BME280;51514;52.206;5.114;2022-10-30T12:14:03;101670.31;;;20.71;71.79
64886;BME280;51514;52.206;5.114;2022-10-30T12:16:29;101674.94;;;20.70;71.94
64886;BME280;51514;52.206;5.114;2022-10-30T12:18:56;101676.44;;;20.73;72.68
64886;BME280;51514;52.206;5.114;2022-10-30T12:21:24;101672.66;;;20.74;72.36
64886;BME280;51514;52.206;5.114;2022-10-30T12:23:54;101671.16;;;20.71;71.68
64886;BME280;51514;52.206;5.114;2022-10-30T12:26:21;101669.47;;;20.70;72.44
64886;BME280;51514;52.206;5.114;2022-10-30T12:28:56;101665.44;;;20.66;71.55
64886;BME280;51514;52.206;5.114;2022-10-30T12:31:31;101667.75;;;20.63;72.44
64886;BME280;51514;52.206;5.114;2022-10-30T12:34:26;101667.75;;;20.63;73.54
64886;BME280;51514;52.206;5.114;2022-10-30T12:37:20;101650.47;;;20.62;72.76
64886;BME280;51514;52.206;5.114;2022-10-30T12:39:55;101653.00;;;20.64;73.77
64886;BME280;51514;52.206;5.114;2022-10-30T12:42:22;101652.81;;;20.65;74.17
64886;BME280;51514;52.206;5.114;2022-10-30T12:50:09;101654.25;;;20.61;73.99
64886;BME280;51514;52.206;5.114;2022-10-30T12:52:50;101650.47;;;20.62;73.89
64886;BME280;51514;52.206;5.114;2022-10-30T12:55:23;101653.63;;;20.59;73.84
64886;BME280;51514;52.206;5.114;2022-10-30T13:00:51;101649.19;;;20.58;74.19
64886;BME280;51514;52.206;5.114;2022-10-30T13:03:29;101644.53;;;20.59;74.75
64886;BME280;51514;52.206;5.114;2022-10-30T13:06:00;101645.78;;;20.56;74.77
64886;BME280;51514;52.206;5.114;2022-10-30T13:08:43;101641.16;;;20.57;74.81
64886;BME280;51514;52.206;5.114;2022-10-30T13:14:19;101635.88;;;20.55;75.51
64886;BME280;51514;52.206;5.114;2022-10-30T13:16:46;101640.13;;;20.58;75.76
64886;BME280;51514;52.206;5.114;2022-10-30T13:19:14;101642.84;;;20.58;76.57
64886;BME280;51514;52.206;5.114;2022-10-30T13:22:06;101643.06;;;20.56;77.00
64886;BME280;51514;52.206;5.114;2022-10-30T13:27:09;101641.78;;;20.52;77.07
64886;BME280;51514;52.206;5.114;2022-10-30T13:29:44;101648.31;;;20.51;77.53
64886;BME280;51514;52.206;5.114;2022-10-30T13:35:40;101640.28;;;20.50;77.63
64886;BME280;51514;52.206;5.114;2022-10-30T13:54:09;101655.78;;;20.29;77.15
64886;BME280;51514;52.206;5.114;2022-10-30T13:56:37;101649.06;;;20.32;77.20
64886;BME280;51514;52.206;5.114;2022-10-30T14:04:15;101651.78;;;20.32;77.37
64886;BME280;51514;52.206;5.114;2022-10-30T14:09:18;101635.56;;;20.30;76.71
64886;BME280;51514;52.206;5.114;2022-10-30T14:11:45;101637.44;;;20.30;77.11
64886;BME280;51514;52.206;5.114;2022-10-30T14:17:15;101618.47;;;20.28;78.31
64886;BME280;51514;52.206;5.114;2022-10-30T14:22:30;101612.78;;;20.30;78.44
64886;BME280;51514;52.206;5.114;2022-10-30T14:24:56;101608.34;;;20.29;78.52
64886;BME280;51514;52.206;5.114;2022-10-30T14:27:30;101616.97;;;20.26;78.11
64886;BME280;51514;52.206;5.114;2022-10-30T14:29:57;101635.09;;;20.27;78.11
64886;BME280;51514;52.206;5.114;2022-10-30T14:39:50;101654.41;;;20.12;78.16
64886;BME280;51514;52.206;5.114;2022-10-30T14:45:07;101681.34;;;20.09;78.38
64886;BME280;51514;52.206;5.114;2022-10-30T14:50:16;101682.78;;;20.04;77.08